Partenope — ICCZ — position and weather

sailwx.info

Track history (hours):
 
Tides and Currents Weather Stations Pressure Air Temp Water Temp Dewpoint Dewpoint Depression Visibility Wind Speed Wind Dir Waves Ship Positions

Partenope

Last reported at 2014-Oct-18 10:17 UTC. Time now 2014-Oct-22 23:15 UTC.
Position N 40°50' E 014°16'.

Length 186 m; draft 6.2 m.

Type: Ship (hazmat cat A). MMSI: 247060500.

Date/timePositionNaut miles runAvg speedWind from/ knotsBaromVisibWave heightAir tempDewpointWater temp
2014-Oct-18 10:17N 40°50' E 014°16'  
2014-Oct-14 21:13N 40°30' E 014°19'20 1.7
2014-Oct-14 09:27N 40°50' E 014°16'1617.6
2014-Oct-14 08:33N 40°35' E 014°17'  
2014-Oct-10 20:15N 40°31' E 014°18'1421.0
2014-Oct-10 19:33N 40°46' E 014°17'5 4.7
2014-Oct-10 18:32N 40°50' E 014°16'0 0.0
2014-Oct-10 17:31N 40°50' E 014°16'0 0.0
2014-Oct-10 16:33N 40°50' E 014°16'0 0.0
2014-Oct-10 15:34N 40°50' E 014°16'0 0.0
2014-Oct-10 14:34N 40°50' E 014°16'0 0.0
2014-Oct-10 13:33N 40°50' E 014°16'0 0.0
2014-Oct-10 12:33N 40°50' E 014°16'0 0.0
2014-Oct-10 11:33N 40°50' E 014°16'0 0.0
2014-Oct-10 10:34N 40°50' E 014°16'0 0.0
2014-Oct-10 09:33N 40°50' E 014°16'0 0.0
2014-Oct-10 08:34N 40°50' E 014°16'0 0.0
2014-Oct-10 07:33N 40°50' E 014°16'12 0.4
2014-Oct-08 20:31N 40°38' E 014°16'12 5.1
2014-Oct-08 18:05N 40°50' E 014°16'0 0.0
2014-Oct-08 16:16N 40°50' E 014°16'0 0.0
2014-Oct-08 15:33N 40°50' E 014°16'0 0.0
2014-Oct-08 14:33N 40°50' E 014°16'0 0.0
2014-Oct-08 13:33N 40°50' E 014°16'0 0.0
2014-Oct-08 12:34N 40°50' E 014°16'0 0.0
2014-Oct-08 11:32N 40°50' E 014°16'0 0.0
2014-Oct-08 10:33N 40°50' E 014°16'  
Track history (hours):
 
Tides and Currents Weather Stations Pressure Air Temp Water Temp Dewpoint Dewpoint Depression Visibility Wind Speed Wind Dir Waves Ship Positions

Partenope

Last reported at 2014-Oct-18 10:17 UTC. Time now 2014-Oct-22 23:15 UTC.
Position N 40°50' E 014°16'.

Length 186 m; draft 6.2 m.

Type: Ship (hazmat cat A). MMSI: 247060500.

Date/timePositionNaut miles runAvg speedWind from/ knotsBaromVisibWave heightAir tempDewpointWater temp
2014-Oct-18 10:17N 40°50' E 014°16'  
2014-Oct-14 21:13N 40°30' E 014°19'20 1.7
2014-Oct-14 09:27N 40°50' E 014°16'1617.6
2014-Oct-14 08:33N 40°35' E 014°17'  
2014-Oct-10 20:15N 40°31' E 014°18'1421.0
2014-Oct-10 19:33N 40°46' E 014°17'5 4.7
2014-Oct-10 18:32N 40°50' E 014°16'0 0.0
2014-Oct-10 17:31N 40°50' E 014°16'0 0.0
2014-Oct-10 16:33N 40°50' E 014°16'0 0.0
2014-Oct-10 15:34N 40°50' E 014°16'0 0.0
2014-Oct-10 14:34N 40°50' E 014°16'0 0.0
2014-Oct-10 13:33N 40°50' E 014°16'0 0.0
2014-Oct-10 12:33N 40°50' E 014°16'0 0.0
2014-Oct-10 11:33N 40°50' E 014°16'0 0.0
2014-Oct-10 10:34N 40°50' E 014°16'0 0.0
2014-Oct-10 09:33N 40°50' E 014°16'0 0.0
2014-Oct-10 08:34N 40°50' E 014°16'0 0.0
2014-Oct-10 07:33N 40°50' E 014°16'12 0.4
2014-Oct-08 20:31N 40°38' E 014°16'12 5.1
2014-Oct-08 18:05N 40°50' E 014°16'0 0.0
2014-Oct-08 16:16N 40°50' E 014°16'0 0.0
2014-Oct-08 15:33N 40°50' E 014°16'0 0.0
2014-Oct-08 14:33N 40°50' E 014°16'0 0.0
2014-Oct-08 13:33N 40°50' E 014°16'0 0.0
2014-Oct-08 12:34N 40°50' E 014°16'0 0.0
2014-Oct-08 11:32N 40°50' E 014°16'0 0.0
2014-Oct-08 10:33N 40°50' E 014°16'  

Dump ship's entire track history